sensor_id;sensor_type;location;lat;lon;timestamp;pressure;altitude;pressure_sealevel;temperature;humidity
26112;BME280;13829;48.990;8.346;2022-12-11T00:00:45;99992.03;;;1.04;95.36
26112;BME280;13829;48.990;8.346;2022-12-11T00:03:14;99984.69;;;0.92;96.31
26112;BME280;13829;48.990;8.346;2022-12-11T00:05:42;99983.50;;;1.07;96.60
26112;BME280;13829;48.990;8.346;2022-12-11T00:08:11;99989.91;;;1.17;97.36
26112;BME280;13829;48.990;8.346;2022-12-11T00:10:38;99985.31;;;1.09;97.86
26112;BME280;13829;48.990;8.346;2022-12-11T00:13:05;99993.34;;;1.17;97.56
26112;BME280;13829;48.990;8.346;2022-12-11T00:15:34;99994.06;;;1.37;97.90
26112;BME280;13829;48.990;8.346;2022-12-11T00:18:01;99991.28;;;1.57;97.45
26112;BME280;13829;48.990;8.346;2022-12-11T00:20:27;99989.81;;;1.39;97.98
26112;BME280;13829;48.990;8.346;2022-12-11T00:22:54;99993.34;;;1.41;97.96
26112;BME280;13829;48.990;8.346;2022-12-11T00:25:21;99994.06;;;1.37;96.73
26112;BME280;13829;48.990;8.346;2022-12-11T00:27:48;99990.72;;;1.16;97.35
26112;BME280;13829;48.990;8.346;2022-12-11T00:30:15;99989.28;;;1.24;97.36
26112;BME280;13829;48.990;8.346;2022-12-11T00:32:43;99989.94;;;1.18;96.05
26112;BME280;13829;48.990;8.346;2022-12-11T00:35:10;99988.28;;;1.44;95.36
26112;BME280;13829;48.990;8.346;2022-12-11T00:37:37;99985.94;;;1.28;95.93
26112;BME280;13829;48.990;8.346;2022-12-11T00:40:06;99991.63;;;1.18;96.97
26112;BME280;13829;48.990;8.346;2022-12-11T00:42:33;99989.19;;;1.21;95.87
26112;BME280;13829;48.990;8.346;2022-12-11T00:45:00;99998.84;;;1.26;96.67
26112;BME280;13829;48.990;8.346;2022-12-11T00:47:27;99994.13;;;1.14;96.35
26112;BME280;13829;48.990;8.346;2022-12-11T00:49:55;100000.91;;;1.35;95.79
26112;BME280;13829;48.990;8.346;2022-12-11T00:52:22;100000.25;;;1.17;95.66
26112;BME280;13829;48.990;8.346;2022-12-11T00:54:49;99989.78;;;1.13;95.88
26112;BME280;13829;48.990;8.346;2022-12-11T00:57:16;99990.38;;;1.06;94.64
26112;BME280;13829;48.990;8.346;2022-12-11T00:59:43;100006.63;;;0.79;95.13
26112;BME280;13829;48.990;8.346;2022-12-11T01:02:10;100008.69;;;0.65;95.11
26112;BME280;13829;48.990;8.346;2022-12-11T01:04:37;100008.66;;;0.64;95.70
26112;BME280;13829;48.990;8.346;2022-12-11T01:07:05;100007.13;;;0.69;96.44
26112;BME280;13829;48.990;8.346;2022-12-11T01:09:32;100010.19;;;0.59;96.31
26112;BME280;13829;48.990;8.346;2022-12-11T01:12:17;100018.69;;;0.56;97.12
26112;BME280;13829;48.990;8.346;2022-12-11T01:14:44;100016.50;;;0.67;96.50
26112;BME280;13829;48.990;8.346;2022-12-11T01:17:11;100017.38;;;0.66;96.13
26112;BME280;13829;48.990;8.346;2022-12-11T01:19:38;100017.91;;;0.80;95.54
26112;BME280;13829;48.990;8.346;2022-12-11T01:22:06;100021.50;;;0.40;95.75
26112;BME280;13829;48.990;8.346;2022-12-11T01:24:33;100024.47;;;0.72;96.29
26112;BME280;13829;48.990;8.346;2022-12-11T01:27:00;100027.84;;;0.48;95.60
26112;BME280;13829;48.990;8.346;2022-12-11T01:29:27;100033.63;;;0.41;96.29
26112;BME280;13829;48.990;8.346;2022-12-11T01:31:54;100028.72;;;0.26;96.10
26112;BME280;13829;48.990;8.346;2022-12-11T01:34:21;100035.84;;;0.10;96.23
26112;BME280;13829;48.990;8.346;2022-12-11T01:36:48;100031.19;;;0.02;96.92
26112;BME280;13829;48.990;8.346;2022-12-11T01:39:16;100026.50;;;0.14;96.14
26112;BME280;13829;48.990;8.346;2022-12-11T01:41:43;100028.97;;;0.11;96.86
26112;BME280;13829;48.990;8.346;2022-12-11T01:47:43;100028.56;;;0.23;95.32
26112;BME280;13829;48.990;8.346;2022-12-11T01:50:10;100033.44;;;0.36;95.03
26112;BME280;13829;48.990;8.346;2022-12-11T01:52:38;100035.28;;;-0.04;95.59
26112;BME280;13829;48.990;8.346;2022-12-11T01:55:08;100035.19;;;-0.05;95.60
26112;BME280;13829;48.990;8.346;2022-12-11T01:57:38;100044.19;;;-0.17;95.64
26112;BME280;13829;48.990;8.346;2022-12-11T02:00:08;100041.31;;;-0.03;97.14
26112;BME280;13829;48.990;8.346;2022-12-11T02:02:36;100046.38;;;-0.06;96.02
26112;BME280;13829;48.990;8.346;2022-12-11T02:05:05;100042.94;;;-0.26;96.44
26112;BME280;13829;48.990;8.346;2022-12-11T02:07:40;100048.06;;;-0.28;97.87
26112;BME280;13829;48.990;8.346;2022-12-11T02:10:10;100049.16;;;-0.42;97.33
26112;BME280;13829;48.990;8.346;2022-12-11T02:12:48;100045.25;;;-0.32;98.19
26112;BME280;13829;48.990;8.346;2022-12-11T02:15:29;100058.94;;;-0.55;98.77
26112;BME280;13829;48.990;8.346;2022-12-11T02:18:15;100052.97;;;-0.54;99.48
26112;BME280;13829;48.990;8.346;2022-12-11T02:20:53;100058.50;;;-0.25;98.73
26112;BME280;13829;48.990;8.346;2022-12-11T02:23:44;100050.38;;;-0.34;99.29
26112;BME280;13829;48.990;8.346;2022-12-11T02:26:36;100053.66;;;-0.17;99.15
26112;BME280;13829;48.990;8.346;2022-12-11T02:29:16;100051.94;;;0.03;98.77
26112;BME280;13829;48.990;8.346;2022-12-11T02:31:52;100052.81;;;0.25;97.65
26112;BME280;13829;48.990;8.346;2022-12-11T02:34:28;100053.31;;;0.16;95.82
26112;BME280;13829;48.990;8.346;2022-12-11T02:37:02;100044.94;;;0.22;95.74
26112;BME280;13829;48.990;8.346;2022-12-11T02:39:35;100047.75;;;0.28;96.00
26112;BME280;13829;48.990;8.346;2022-12-11T02:42:05;100049.41;;;0.26;95.66
26112;BME280;13829;48.990;8.346;2022-12-11T02:44:34;100047.31;;;0.38;95.46
26112;BME280;13829;48.990;8.346;2022-12-11T02:47:06;100041.56;;;0.45;95.71
26112;BME280;13829;48.990;8.346;2022-12-11T02:49:34;100037.97;;;0.42;95.04
26112;BME280;13829;48.990;8.346;2022-12-11T02:52:05;100035.16;;;0.36;95.65
26112;BME280;13829;48.990;8.346;2022-12-11T02:54:36;100027.94;;;0.50;95.83
26112;BME280;13829;48.990;8.346;2022-12-11T02:57:10;100036.75;;;0.55;94.76
26112;BME280;13829;48.990;8.346;2022-12-11T02:59:44;100031.59;;;0.34;94.90
26112;BME280;13829;48.990;8.346;2022-12-11T03:02:13;100022.25;;;0.58;95.47
26112;BME280;13829;48.990;8.346;2022-12-11T03:04:42;100020.72;;;0.63;95.33
26112;BME280;13829;48.990;8.346;2022-12-11T03:07:14;100019.41;;;0.52;96.00
26112;BME280;13829;48.990;8.346;2022-12-11T03:09:44;100027.81;;;0.46;95.68
26112;BME280;13829;48.990;8.346;2022-12-11T03:12:14;100020.84;;;0.45;96.42
26112;BME280;13829;48.990;8.346;2022-12-11T03:14:44;100025.91;;;0.63;95.67
26112;BME280;13829;48.990;8.346;2022-12-11T03:17:17;100020.94;;;0.70;95.00
26112;BME280;13829;48.990;8.346;2022-12-11T03:19:52;100027.00;;;0.70;94.29
26112;BME280;13829;48.990;8.346;2022-12-11T03:22:27;100030.63;;;0.53;94.34
26112;BME280;13829;48.990;8.346;2022-12-11T03:25:02;100020.22;;;0.51;95.53
26112;BME280;13829;48.990;8.346;2022-12-11T03:27:35;100022.75;;;0.50;95.30
26112;BME280;13829;48.990;8.346;2022-12-11T03:30:10;100027.47;;;0.60;95.35
26112;BME280;13829;48.990;8.346;2022-12-11T03:32:46;100032.72;;;0.40;95.88
26112;BME280;13829;48.990;8.346;2022-12-11T03:35:22;100031.22;;;0.45;97.07
26112;BME280;13829;48.990;8.346;2022-12-11T03:37:53;100039.91;;;0.47;96.60
26112;BME280;13829;48.990;8.346;2022-12-11T03:40:26;100040.66;;;0.66;96.62
26112;BME280;13829;48.990;8.346;2022-12-11T03:42:56;100041.81;;;0.74;96.03
26112;BME280;13829;48.990;8.346;2022-12-11T03:45:26;100045.44;;;0.57;96.19
26112;BME280;13829;48.990;8.346;2022-12-11T03:47:57;100043.94;;;0.62;96.61
26112;BME280;13829;48.990;8.346;2022-12-11T03:50:29;100041.03;;;0.54;95.23
26112;BME280;13829;48.990;8.346;2022-12-11T03:52:59;100048.75;;;0.53;96.09
26112;BME280;13829;48.990;8.346;2022-12-11T03:55:29;100039.16;;;0.50;96.44
26112;BME280;13829;48.990;8.346;2022-12-11T03:57:58;100026.78;;;0.43;97.34
26112;BME280;13829;48.990;8.346;2022-12-11T04:00:27;100030.66;;;0.31;97.41
26112;BME280;13829;48.990;8.346;2022-12-11T04:02:54;100026.31;;;0.53;97.38
26112;BME280;13829;48.990;8.346;2022-12-11T04:05:43;100041.44;;;0.42;96.31
26112;BME280;13829;48.990;8.346;2022-12-11T04:08:10;100042.63;;;0.51;97.03
26112;BME280;13829;48.990;8.346;2022-12-11T04:10:38;100047.22;;;0.58;97.31
26112;BME280;13829;48.990;8.346;2022-12-11T04:13:05;100044.69;;;0.59;97.54
26112;BME280;13829;48.990;8.346;2022-12-11T04:15:34;100030.97;;;0.39;97.97
26112;BME280;13829;48.990;8.346;2022-12-11T04:18:01;100017.69;;;0.53;98.36
26112;BME280;13829;48.990;8.346;2022-12-11T04:20:45;100010.72;;;0.73;96.22
26112;BME280;13829;48.990;8.346;2022-12-11T04:23:30;100032.22;;;0.49;97.31
26112;BME280;13829;48.990;8.346;2022-12-11T04:26:18;100028.97;;;0.32;97.75
26112;BME280;13829;48.990;8.346;2022-12-11T04:28:47;100035.25;;;0.39;98.25
26112;BME280;13829;48.990;8.346;2022-12-11T04:31:19;100043.06;;;0.40;98.61
26112;BME280;13829;48.990;8.346;2022-12-11T04:33:46;100040.97;;;0.53;98.09
26112;BME280;13829;48.990;8.346;2022-12-11T04:36:13;100035.59;;;0.69;96.90
26112;BME280;13829;48.990;8.346;2022-12-11T04:38:40;100038.16;;;0.46;97.18
26112;BME280;13829;48.990;8.346;2022-12-11T04:41:10;100043.47;;;0.50;96.92
26112;BME280;13829;48.990;8.346;2022-12-11T04:43:37;100035.34;;;0.63;96.74
26112;BME280;13829;48.990;8.346;2022-12-11T04:46:07;100032.00;;;0.65;96.39
26112;BME280;13829;48.990;8.346;2022-12-11T04:48:37;100028.53;;;0.65;96.62
26112;BME280;13829;48.990;8.346;2022-12-11T04:51:05;100032.03;;;0.67;95.77
26112;BME280;13829;48.990;8.346;2022-12-11T04:53:33;100029.81;;;0.54;96.00
26112;BME280;13829;48.990;8.346;2022-12-11T04:56:00;100027.09;;;0.51;96.00
26112;BME280;13829;48.990;8.346;2022-12-11T04:58:27;100022.09;;;0.55;96.85
26112;BME280;13829;48.990;8.346;2022-12-11T05:00:55;100018.50;;;0.52;97.15
26112;BME280;13829;48.990;8.346;2022-12-11T05:03:22;100024.03;;;0.38;96.73
26112;BME280;13829;48.990;8.346;2022-12-11T05:05:52;100014.38;;;0.34;96.64
26112;BME280;13829;48.990;8.346;2022-12-11T05:08:20;100018.88;;;0.38;97.88
26112;BME280;13829;48.990;8.346;2022-12-11T05:10:54;100022.31;;;0.39;98.32
26112;BME280;13829;48.990;8.346;2022-12-11T05:13:22;100026.03;;;0.45;98.27
26112;BME280;13829;48.990;8.346;2022-12-11T05:15:49;100018.28;;;0.45;96.67
26112;BME280;13829;48.990;8.346;2022-12-11T05:18:16;100013.19;;;0.47;97.53
26112;BME280;13829;48.990;8.346;2022-12-11T05:20:43;100018.16;;;0.42;98.52
26112;BME280;13829;48.990;8.346;2022-12-11T05:23:11;100020.41;;;0.33;98.31
26112;BME280;13829;48.990;8.346;2022-12-11T05:25:38;100009.94;;;0.53;96.63
26112;BME280;13829;48.990;8.346;2022-12-11T05:28:05;100012.50;;;0.30;96.00
26112;BME280;13829;48.990;8.346;2022-12-11T05:30:32;100017.22;;;0.40;96.43
26112;BME280;13829;48.990;8.346;2022-12-11T05:32:59;100007.88;;;0.23;96.50
26112;BME280;13829;48.990;8.346;2022-12-11T05:35:26;100004.63;;;0.27;96.67
26112;BME280;13829;48.990;8.346;2022-12-11T05:37:53;99999.06;;;0.18;95.97
26112;BME280;13829;48.990;8.346;2022-12-11T05:40:21;99995.81;;;0.22;96.56
26112;BME280;13829;48.990;8.346;2022-12-11T05:42:48;99987.13;;;0.42;96.27
26112;BME280;13829;48.990;8.346;2022-12-11T05:45:16;99993.25;;;0.44;96.00
26112;BME280;13829;48.990;8.346;2022-12-11T05:47:43;100000.53;;;0.11;96.33
26112;BME280;13829;48.990;8.346;2022-12-11T05:50:10;100000.59;;;0.12;97.62
26112;BME280;13829;48.990;8.346;2022-12-11T05:52:37;99996.69;;;0.01;97.31
26112;BME280;13829;48.990;8.346;2022-12-11T05:55:04;99995.34;;;0.11;96.11
26112;BME280;13829;48.990;8.346;2022-12-11T05:57:33;99981.69;;;0.36;96.74
26112;BME280;13829;48.990;8.346;2022-12-11T06:00:00;99977.22;;;0.32;97.88
26112;BME280;13829;48.990;8.346;2022-12-11T06:02:27;99980.06;;;0.38;95.44
26112;BME280;13829;48.990;8.346;2022-12-11T06:04:54;99978.03;;;0.52;96.90
26112;BME280;13829;48.990;8.346;2022-12-11T06:07:20;99972.16;;;0.35;96.90
26112;BME280;13829;48.990;8.346;2022-12-11T06:09:47;99969.63;;;0.37;96.82
26112;BME280;13829;48.990;8.346;2022-12-11T06:12:14;99966.47;;;0.44;97.66
26112;BME280;13829;48.990;8.346;2022-12-11T06:14:43;99974.69;;;0.34;96.25
26112;BME280;13829;48.990;8.346;2022-12-11T06:17:09;99974.97;;;0.19;96.93
26112;BME280;13829;48.990;8.346;2022-12-11T06:19:37;99978.53;;;0.43;97.73
26112;BME280;13829;48.990;8.346;2022-12-11T06:22:04;99980.63;;;0.31;97.03
26112;BME280;13829;48.990;8.346;2022-12-11T06:24:31;99972.75;;;0.51;96.11
26112;BME280;13829;48.990;8.346;2022-12-11T06:26:58;99971.84;;;0.48;96.54
26112;BME280;13829;48.990;8.346;2022-12-11T06:29:24;99961.97;;;0.38;94.78
26112;BME280;13829;48.990;8.346;2022-12-11T06:31:53;99966.53;;;0.45;95.41
26112;BME280;13829;48.990;8.346;2022-12-11T06:34:20;99959.81;;;0.28;96.00
26112;BME280;13829;48.990;8.346;2022-12-11T06:36:47;99970.63;;;0.18;96.42
26112;BME280;13829;48.990;8.346;2022-12-11T06:39:13;99955.72;;;0.33;95.58
26112;BME280;13829;48.990;8.346;2022-12-11T06:41:40;99961.13;;;0.17;95.54
26112;BME280;13829;48.990;8.346;2022-12-11T06:44:08;99963.97;;;0.02;95.61
26112;BME280;13829;48.990;8.346;2022-12-11T06:46:35;99968.44;;;0.06;96.32
26112;BME280;13829;48.990;8.346;2022-12-11T06:49:03;99975.53;;;-0.11;96.61
26112;BME280;13829;48.990;8.346;2022-12-11T06:51:31;99970.56;;;-0.05;97.22
26112;BME280;13829;48.990;8.346;2022-12-11T06:53:58;99972.59;;;0.02;97.25
26112;BME280;13829;48.990;8.346;2022-12-11T06:56:25;99974.47;;;0.06;97.24
26112;BME280;13829;48.990;8.346;2022-12-11T06:58:52;99971.22;;;0.10;97.04
26112;BME280;13829;48.990;8.346;2022-12-11T07:01:22;99976.50;;;0.13;96.04
26112;BME280;13829;48.990;8.346;2022-12-11T07:03:51;99977.09;;;0.29;95.00
26112;BME280;13829;48.990;8.346;2022-12-11T07:06:20;99979.34;;;0.20;95.16
26112;BME280;13829;48.990;8.346;2022-12-11T07:08:48;99979.38;;;0.21;95.85
26112;BME280;13829;48.990;8.346;2022-12-11T07:11:17;99980.44;;;0.26;95.63
26112;BME280;13829;48.990;8.346;2022-12-11T07:13:45;99983.69;;;0.21;95.62
26112;BME280;13829;48.990;8.346;2022-12-11T07:16:15;99986.16;;;0.40;95.66
26112;BME280;13829;48.990;8.346;2022-12-11T07:18:47;99984.72;;;0.47;95.52
26112;BME280;13829;48.990;8.346;2022-12-11T07:21:15;99981.69;;;0.36;95.25
26112;BME280;13829;48.990;8.346;2022-12-11T07:23:43;99976.09;;;0.71;95.39
26112;BME280;13829;48.990;8.346;2022-12-11T07:26:15;99971.06;;;0.51;95.47
26112;BME280;13829;48.990;8.346;2022-12-11T07:28:43;99976.63;;;0.62;94.79
26112;BME280;13829;48.990;8.346;2022-12-11T07:31:12;99978.88;;;0.30;94.23
26112;BME280;13829;48.990;8.346;2022-12-11T07:33:40;99983.22;;;0.31;95.55
26112;BME280;13829;48.990;8.346;2022-12-11T07:36:10;99983.56;;;0.40;96.13
26112;BME280;13829;48.990;8.346;2022-12-11T07:38:37;99987.50;;;0.53;96.40
26112;BME280;13829;48.990;8.346;2022-12-11T07:41:09;99993.25;;;0.44;95.82
26112;BME280;13829;48.990;8.346;2022-12-11T07:43:36;99982.66;;;0.38;97.22
26112;BME280;13829;48.990;8.346;2022-12-11T07:46:06;99988.00;;;0.65;96.26
26112;BME280;13829;48.990;8.346;2022-12-11T07:48:36;99983.25;;;0.76;95.96
26112;BME280;13829;48.990;8.346;2022-12-11T07:51:09;99988.22;;;0.72;95.43
26112;BME280;13829;48.990;8.346;2022-12-11T07:53:36;99991.56;;;0.46;95.69
26112;BME280;13829;48.990;8.346;2022-12-11T07:56:03;99987.50;;;0.53;96.88
26112;BME280;13829;48.990;8.346;2022-12-11T07:58:32;99986.66;;;0.53;97.12
26112;BME280;13829;48.990;8.346;2022-12-11T08:00:59;99991.63;;;0.71;97.48
26112;BME280;13829;48.990;8.346;2022-12-11T08:03:26;99990.28;;;0.58;96.86
26112;BME280;13829;48.990;8.346;2022-12-11T08:05:53;99989.81;;;0.68;97.28
26112;BME280;13829;48.990;8.346;2022-12-11T08:08:20;99992.97;;;0.84;96.92
26112;BME280;13829;48.990;8.346;2022-12-11T08:10:47;99989.94;;;0.94;96.02
26112;BME280;13829;48.990;8.346;2022-12-11T08:13:14;99992.53;;;0.71;94.92
26112;BME280;13829;48.990;8.346;2022-12-11T08:15:42;100000.34;;;0.73;96.55
26112;BME280;13829;48.990;8.346;2022-12-11T08:18:09;99990.97;;;0.75;97.52
26112;BME280;13829;48.990;8.346;2022-12-11T08:20:37;99990.63;;;0.90;95.95
26112;BME280;13829;48.990;8.346;2022-12-11T08:23:04;99979.69;;;0.97;97.20
26112;BME280;13829;48.990;8.346;2022-12-11T08:25:31;99986.16;;;0.86;96.22
26112;BME280;13829;48.990;8.346;2022-12-11T08:27:58;99990.00;;;0.95;96.54
26112;BME280;13829;48.990;8.346;2022-12-11T08:30:25;99987.22;;;1.15;95.95
26112;BME280;13829;48.990;8.346;2022-12-11T08:32:53;99984.03;;;1.22;95.81
26112;BME280;13829;48.990;8.346;2022-12-11T08:35:20;99989.13;;;1.43;93.89
26112;BME280;13829;48.990;8.346;2022-12-11T08:37:47;99989.34;;;1.50;92.41
26112;BME280;13829;48.990;8.346;2022-12-11T08:40:14;99987.28;;;1.41;92.66
26112;BME280;13829;48.990;8.346;2022-12-11T08:42:41;99986.53;;;1.43;91.01
26112;BME280;13829;48.990;8.346;2022-12-11T08:45:09;99993.19;;;1.61;91.94
26112;BME280;13829;48.990;8.346;2022-12-11T08:47:36;99990.50;;;1.59;91.80
26112;BME280;13829;48.990;8.346;2022-12-11T08:50:05;99985.41;;;1.61;92.30
26112;BME280;13829;48.990;8.346;2022-12-11T08:52:33;99980.81;;;1.54;91.40
26112;BME280;13829;48.990;8.346;2022-12-11T08:55:00;99985.22;;;1.56;92.39
26112;BME280;13829;48.990;8.346;2022-12-11T08:57:27;99972.69;;;1.69;92.07
26112;BME280;13829;48.990;8.346;2022-12-11T08:59:54;99974.19;;;1.62;92.00
26112;BME280;13829;48.990;8.346;2022-12-11T09:02:21;99970.44;;;1.79;91.72
26112;BME280;13829;48.990;8.346;2022-12-11T09:04:48;99971.41;;;1.82;90.97
26112;BME280;13829;48.990;8.346;2022-12-11T09:07:16;99963.63;;;1.82;90.41
26112;BME280;13829;48.990;8.346;2022-12-11T09:09:43;99963.56;;;1.80;90.18
26112;BME280;13829;48.990;8.346;2022-12-11T09:12:10;99968.69;;;1.78;90.08
26112;BME280;13829;48.990;8.346;2022-12-11T09:14:37;99970.28;;;1.49;90.37
26112;BME280;13829;48.990;8.346;2022-12-11T09:17:04;99970.75;;;1.63;90.48
26112;BME280;13829;48.990;8.346;2022-12-11T09:19:31;99963.50;;;1.53;90.76
26112;BME280;13829;48.990;8.346;2022-12-11T09:21:58;99960.25;;;1.58;91.51
26112;BME280;13829;48.990;8.346;2022-12-11T09:24:26;99963.75;;;1.60;91.69
26112;BME280;13829;48.990;8.346;2022-12-11T09:26:53;99973.41;;;1.65;91.96
26112;BME280;13829;48.990;8.346;2022-12-11T09:29:20;99969.97;;;1.66;90.51
26112;BME280;13829;48.990;8.346;2022-12-11T09:31:47;99966.41;;;1.88;91.37
26112;BME280;13829;48.990;8.346;2022-12-11T09:34:14;99968.69;;;1.53;89.90
26112;BME280;13829;48.990;8.346;2022-12-11T09:36:42;99957.81;;;1.63;90.57
26112;BME280;13829;48.990;8.346;2022-12-11T09:39:13;99966.84;;;1.49;90.82
26112;BME280;13829;48.990;8.346;2022-12-11T09:41:50;99964.53;;;1.58;92.37
26112;BME280;13829;48.990;8.346;2022-12-11T09:44:30;99961.75;;;1.77;91.10
26112;BME280;13829;48.990;8.346;2022-12-11T09:46:59;99967.13;;;1.84;90.04
26112;BME280;13829;48.990;8.346;2022-12-11T09:49:34;99959.75;;;1.96;90.25
26112;BME280;13829;48.990;8.346;2022-12-11T09:52:12;99962.25;;;1.93;90.05
26112;BME280;13829;48.990;8.346;2022-12-11T09:54:47;99965.59;;;1.89;90.08
26112;BME280;13829;48.990;8.346;2022-12-11T09:57:33;99953.44;;;1.88;90.30
26112;BME280;13829;48.990;8.346;2022-12-11T10:00:13;99950.53;;;1.78;90.45
26112;BME280;13829;48.990;8.346;2022-12-11T10:03:10;99949.28;;;1.67;90.35
26112;BME280;13829;48.990;8.346;2022-12-11T10:05:49;99945.81;;;1.92;90.31
26112;BME280;13829;48.990;8.346;2022-12-11T10:08:30;99945.75;;;1.91;91.77
26112;BME280;13829;48.990;8.346;2022-12-11T10:14:18;99926.44;;;2.08;90.90
26112;BME280;13829;48.990;8.346;2022-12-11T10:16:51;99928.25;;;2.11;90.00
26112;BME280;13829;48.990;8.346;2022-12-11T10:19:24;99922.25;;;2.14;89.07
26112;BME280;13829;48.990;8.346;2022-12-11T10:21:53;99924.47;;;2.01;89.44
26112;BME280;13829;48.990;8.346;2022-12-11T10:24:32;99919.09;;;1.95;90.01
26112;BME280;13829;48.990;8.346;2022-12-11T10:27:13;99917.00;;;2.10;88.51
26112;BME280;13829;48.990;8.346;2022-12-11T10:29:42;99910.56;;;2.26;89.72
26112;BME280;13829;48.990;8.346;2022-12-11T10:32:21;99910.25;;;2.16;90.37
26112;BME280;13829;48.990;8.346;2022-12-11T10:34:57;99904.09;;;2.41;89.75
26112;BME280;13829;48.990;8.346;2022-12-11T10:37:25;99904.50;;;2.26;88.98
26112;BME280;13829;48.990;8.346;2022-12-11T10:39:52;99901.25;;;2.33;89.07
26112;BME280;13829;48.990;8.346;2022-12-11T10:42:21;99900.16;;;2.55;88.13
26112;BME280;13829;48.990;8.346;2022-12-11T10:44:58;99890.56;;;2.53;86.78
26112;BME280;13829;48.990;8.346;2022-12-11T10:47:25;99903.72;;;2.59;87.98
26112;BME280;13829;48.990;8.346;2022-12-11T10:49:55;99899.69;;;2.69;87.21
26112;BME280;13829;48.990;8.346;2022-12-11T10:52:26;99899.91;;;2.76;86.43
26112;BME280;13829;48.990;8.346;2022-12-11T10:54:59;99897.50;;;2.83;86.11
26112;BME280;13829;48.990;8.346;2022-12-11T10:57:30;99890.94;;;2.97;85.79
26112;BME280;13829;48.990;8.346;2022-12-11T10:59:59;99889.16;;;2.94;85.83
26112;BME280;13829;48.990;8.346;2022-12-11T11:02:33;99895.22;;;2.95;85.49
26112;BME280;13829;48.990;8.346;2022-12-11T11:05:14;99889.94;;;2.60;86.08
26112;BME280;13829;48.990;8.346;2022-12-11T11:07:42;99890.66;;;2.56;85.93
26112;BME280;13829;48.990;8.346;2022-12-11T11:10:16;99883.16;;;2.65;86.07
26112;BME280;13829;48.990;8.346;2022-12-11T11:12:46;99879.63;;;2.63;86.06
26112;BME280;13829;48.990;8.346;2022-12-11T11:15:18;99878.44;;;2.84;85.37
26112;BME280;13829;48.990;8.346;2022-12-11T11:17:51;99875.13;;;2.88;85.21
26112;BME280;13829;48.990;8.346;2022-12-11T11:20:21;99874.94;;;2.82;85.13
26112;BME280;13829;48.990;8.346;2022-12-11T11:22:53;99876.00;;;2.88;84.67
26112;BME280;13829;48.990;8.346;2022-12-11T11:25:23;99871.81;;;2.93;82.51
26112;BME280;13829;48.990;8.346;2022-12-11T11:27:54;99870.72;;;2.85;83.19
26112;BME280;13829;48.990;8.346;2022-12-11T11:30:26;99869.75;;;2.82;83.19
26112;BME280;13829;48.990;8.346;2022-12-11T11:32:57;99871.00;;;2.64;82.37
26112;BME280;13829;48.990;8.346;2022-12-11T11:35:28;99876.41;;;2.72;83.75
26112;BME280;13829;48.990;8.346;2022-12-11T11:38:17;99879.22;;;2.80;84.55
26112;BME280;13829;48.990;8.346;2022-12-11T11:40:52;99879.78;;;2.69;84.55
26112;BME280;13829;48.990;8.346;2022-12-11T11:43:32;99873.19;;;2.81;84.67
26112;BME280;13829;48.990;8.346;2022-12-11T11:46:08;99872.53;;;2.88;83.73
26112;BME280;13829;48.990;8.346;2022-12-11T11:48:48;99865.63;;;2.90;85.45
26112;BME280;13829;48.990;8.346;2022-12-11T11:51:24;99863.59;;;2.78;85.68
26112;BME280;13829;48.990;8.346;2022-12-11T11:53:57;99863.56;;;2.76;85.22
26112;BME280;13829;48.990;8.346;2022-12-11T11:56:30;99859.19;;;2.75;84.80
26112;BME280;13829;48.990;8.346;2022-12-11T11:59:10;99860.06;;;2.76;85.27
26112;BME280;13829;48.990;8.346;2022-12-11T12:01:42;99865.88;;;2.67;84.77
26112;BME280;13829;48.990;8.346;2022-12-11T12:04:11;99864.22;;;2.69;85.20
26112;BME280;13829;48.990;8.346;2022-12-11T12:06:58;99864.81;;;2.91;84.23
26112;BME280;13829;48.990;8.346;2022-12-11T12:09:45;99856.19;;;2.92;83.87
26112;BME280;13829;48.990;8.346;2022-12-11T12:12:31;99861.03;;;2.80;83.56
26112;BME280;13829;48.990;8.346;2022-12-11T12:15:35;99855.69;;;3.05;83.09
26112;BME280;13829;48.990;8.346;2022-12-11T12:18:19;99858.00;;;2.96;83.18
26112;BME280;13829;48.990;8.346;2022-12-11T12:20:59;99850.03;;;2.88;84.10
26112;BME280;13829;48.990;8.346;2022-12-11T12:23:57;99858.00;;;2.96;83.21
26112;BME280;13829;48.990;8.346;2022-12-11T12:26:30;99852.81;;;2.96;83.30
26112;BME280;13829;48.990;8.346;2022-12-11T12:29:12;99851.38;;;3.07;84.19
26112;BME280;13829;48.990;8.346;2022-12-11T12:31:54;99854.19;;;2.82;82.05
26112;BME280;13829;48.990;8.346;2022-12-11T12:34:44;99847.75;;;3.01;82.50
26112;BME280;13829;48.990;8.346;2022-12-11T12:37:27;99843.25;;;2.95;82.40
26112;BME280;13829;48.990;8.346;2022-12-11T12:40:13;99848.94;;;2.80;82.29
26112;BME280;13829;48.990;8.346;2022-12-11T12:42:52;99842.84;;;2.80;81.65
26112;BME280;13829;48.990;8.346;2022-12-11T12:45:26;99843.41;;;3.00;81.57
26112;BME280;13829;48.990;8.346;2022-12-11T12:47:54;99834.81;;;3.02;81.49
26112;BME280;13829;48.990;8.346;2022-12-11T12:50:31;99832.53;;;3.15;82.06
26112;BME280;13829;48.990;8.346;2022-12-11T12:53:05;99834.47;;;3.22;82.69
26112;BME280;13829;48.990;8.346;2022-12-11T12:55:34;99831.66;;;3.14;82.25
26112;BME280;13829;48.990;8.346;2022-12-11T12:58:05;99826.47;;;3.14;80.81
26112;BME280;13829;48.990;8.346;2022-12-11T13:00:35;99832.94;;;2.97;82.76
26112;BME280;13829;48.990;8.346;2022-12-11T13:03:18;99830.28;;;2.95;81.62
26112;BME280;13829;48.990;8.346;2022-12-11T13:05:58;99831.03;;;2.91;81.23
26112;BME280;13829;48.990;8.346;2022-12-11T13:08:30;99836.28;;;2.92;81.09
26112;BME280;13829;48.990;8.346;2022-12-11T13:11:03;99827.69;;;2.95;80.46
26112;BME280;13829;48.990;8.346;2022-12-11T13:13:37;99835.81;;;3.07;80.09
26112;BME280;13829;48.990;8.346;2022-12-11T13:18:49;99832.66;;;2.87;80.58
26112;BME280;13829;48.990;8.346;2022-12-11T13:21:31;99825.03;;;2.93;79.96
26112;BME280;13829;48.990;8.346;2022-12-11T13:24:24;99822.56;;;2.97;80.27
26112;BME280;13829;48.990;8.346;2022-12-11T13:26:51;99830.81;;;2.82;79.99
26112;BME280;13829;48.990;8.346;2022-12-11T13:29:32;99829.06;;;2.82;80.33
26112;BME280;13829;48.990;8.346;2022-12-11T13:32:10;99823.09;;;2.53;80.79
26112;BME280;13829;48.990;8.346;2022-12-11T13:34:52;99826.38;;;2.77;80.88
26112;BME280;13829;48.990;8.346;2022-12-11T13:37:27;99827.44;;;2.54;79.78